createdAt,value
2019-05-14T00:01:36.027Z,99.90
2019-05-14T00:04:07.686Z,99.90
2019-05-14T00:06:41.589Z,99.90
2019-05-14T00:09:12.840Z,99.90
2019-05-14T00:11:44.616Z,99.90
2019-05-14T00:14:16.195Z,99.90
2019-05-14T00:16:51.177Z,99.90
2019-05-14T00:19:22.677Z,99.90
2019-05-14T00:21:54.781Z,99.90
2019-05-14T00:24:29.155Z,99.90
2019-05-14T00:27:02.105Z,99.90
2019-05-14T00:29:34.255Z,99.90
2019-05-14T00:32:05.618Z,99.90
2019-05-14T00:34:37.142Z,99.90
2019-05-14T00:37:08.425Z,99.90
2019-05-14T00:39:41.650Z,99.90
2019-05-14T00:42:14.563Z,99.90
2019-05-14T00:44:54.262Z,99.90
2019-05-14T00:47:18.990Z,99.90
2019-05-14T00:49:51.708Z,99.90
2019-05-14T00:52:23.563Z,99.90
2019-05-14T00:54:54.915Z,99.90
2019-05-14T00:57:26.839Z,99.90
2019-05-14T01:00:01.108Z,99.90
2019-05-14T01:02:32.739Z,99.90
2019-05-14T01:05:04.410Z,99.90
2019-05-14T01:07:36.117Z,99.90
2019-05-14T01:10:08.777Z,99.90
2019-05-14T01:12:41.413Z,99.90
2019-05-14T01:15:14.337Z,99.90
2019-05-14T01:17:46.479Z,99.90
2019-05-14T01:20:18.103Z,99.90
2019-05-14T01:22:51.640Z,99.90
2019-05-14T01:25:23.826Z,99.90
2019-05-14T01:27:56.173Z,99.90
2019-05-14T01:30:27.809Z,99.90
2019-05-14T01:33:01.814Z,99.90
2019-05-14T01:35:33.041Z,99.90
2019-05-14T01:38:04.329Z,99.90
2019-05-14T01:40:35.647Z,99.90
2019-05-14T01:43:07.159Z,99.90
2019-05-14T01:45:38.729Z,99.90
2019-05-14T01:48:11.676Z,99.90
2019-05-14T01:50:43.692Z,99.90
2019-05-14T01:53:15.242Z,99.90
2019-05-14T01:55:47.124Z,99.90
2019-05-14T01:58:19.196Z,99.90
2019-05-14T02:00:52.257Z,99.90
2019-05-14T02:03:24.219Z,99.90
2019-05-14T02:05:56.118Z,99.90
2019-05-14T02:08:27.722Z,99.90
2019-05-14T02:13:25.163Z,99.90
2019-05-14T02:15:56.782Z,99.90
2019-05-14T02:18:30.704Z,99.90
2019-05-14T02:21:01.894Z,99.90
2019-05-14T02:23:33.465Z,99.90
2019-05-14T02:26:05.505Z,99.90
2019-05-14T02:28:37.868Z,99.90
2019-05-14T02:31:09.729Z,99.90
2019-05-14T02:33:41.020Z,99.90
2019-05-14T02:36:13.124Z,99.90
2019-05-14T02:38:44.918Z,99.90
2019-05-14T02:41:19.682Z,99.90
2019-05-14T02:43:50.580Z,99.90
2019-05-14T02:46:22.279Z,99.90
2019-05-14T02:48:54.333Z,99.90
2019-05-14T02:51:26.236Z,99.90
2019-05-14T02:53:59.137Z,99.90
2019-05-14T02:56:31.340Z,99.90
2019-05-14T02:59:05.910Z,99.90
2019-05-14T03:01:40.390Z,99.90
2019-05-14T03:04:12.048Z,99.90
2019-05-14T03:06:43.792Z,99.90
2019-05-14T03:09:15.124Z,99.90
2019-05-14T03:11:48.589Z,99.90
2019-05-14T03:14:20.516Z,99.90
2019-05-14T03:16:52.608Z,99.90
2019-05-14T03:19:24.173Z,99.90
2019-05-14T03:21:55.767Z,99.90
2019-05-14T03:24:28.900Z,99.90
2019-05-14T03:27:00.604Z,99.90
2019-05-14T03:29:32.479Z,99.90
2019-05-14T03:32:04.117Z,99.90
2019-05-14T03:34:42.077Z,99.90
2019-05-14T03:37:13.008Z,99.90
2019-05-14T03:39:42.130Z,99.90
2019-05-14T03:42:13.913Z,99.90
2019-05-14T03:44:46.258Z,99.90
2019-05-14T03:47:19.733Z,99.90
2019-05-14T03:49:51.752Z,99.90
2019-05-14T03:52:23.540Z,99.90
2019-05-14T03:54:55.548Z,99.90
2019-05-14T03:57:29.161Z,99.90
2019-05-14T04:00:00.595Z,99.90
2019-05-14T04:02:32.533Z,99.90
2019-05-14T04:05:05.193Z,99.90
2019-05-14T04:07:39.370Z,99.90
2019-05-14T04:10:10.913Z,99.90
2019-05-14T04:12:49.227Z,99.90
2019-05-14T04:15:24.193Z,99.90
2019-05-14T04:17:59.654Z,99.90
2019-05-14T04:20:35.632Z,99.90
2019-05-14T04:23:10.623Z,99.90
2019-05-14T04:25:43.758Z,99.90
2019-05-14T04:28:19.388Z,99.90
2019-05-14T04:30:55.331Z,99.90
2019-05-14T04:33:30.419Z,99.90
2019-05-14T04:36:01.894Z,99.90
2019-05-14T04:38:33.008Z,99.90
2019-05-14T04:41:04.816Z,99.90
2019-05-14T04:43:40.031Z,99.90
2019-05-14T04:46:10.780Z,99.90
2019-05-14T04:48:44.319Z,99.90
2019-05-14T04:51:19.626Z,99.90
2019-05-14T04:53:50.026Z,99.90
2019-05-14T04:56:22.087Z,99.90
2019-05-14T04:58:53.763Z,99.90
2019-05-14T05:01:25.777Z,99.90
2019-05-14T05:03:59.108Z,99.90
2019-05-14T05:06:32.670Z,99.90
2019-05-14T05:09:05.671Z,99.90
2019-05-14T05:11:39.461Z,99.90
2019-05-14T05:14:10.401Z,99.90
2019-05-14T05:16:42.175Z,99.90
2019-05-14T05:19:14.434Z,99.90
2019-05-14T05:21:47.993Z,99.90
2019-05-14T05:24:18.970Z,99.90
2019-05-14T05:26:50.370Z,99.90
2019-05-14T05:29:22.450Z,99.90
2019-05-14T05:31:54.081Z,99.90
2019-05-14T05:34:28.140Z,99.90
2019-05-14T05:36:59.386Z,99.10
2019-05-14T05:39:31.627Z,96.90
2019-05-14T05:42:02.938Z,93.40
2019-05-14T05:44:35.043Z,90.60
2019-05-14T05:47:08.976Z,81.20
2019-05-14T05:49:39.770Z,76.90
2019-05-14T05:52:11.676Z,73.50
2019-05-14T05:54:43.352Z,70.80
2019-05-14T05:57:15.144Z,62.50
2019-05-14T05:59:48.561Z,61.00
2019-05-14T06:02:19.232Z,57.00
2019-05-14T06:04:52.559Z,54.50
2019-05-14T06:07:24.736Z,53.40
2019-05-14T06:09:55.894Z,49.90
2019-05-14T06:12:29.531Z,49.10
2019-05-14T06:15:00.448Z,47.70
2019-05-14T06:17:31.749Z,47.70
2019-05-14T06:20:03.311Z,47.00
2019-05-14T06:22:34.612Z,45.70
2019-05-14T06:25:10.920Z,45.20
2019-05-14T06:27:40.103Z,43.40
2019-05-14T06:30:12.864Z,42.50
2019-05-14T06:32:44.448Z,44.70
2019-05-14T06:35:16.095Z,44.40
2019-05-14T06:37:49.015Z,44.50
2019-05-14T06:40:21.422Z,46.70
2019-05-14T06:42:52.786Z,48.50
2019-05-14T06:45:24.099Z,49.70
2019-05-14T06:47:55.786Z,49.30
2019-05-14T06:50:28.555Z,49.20
2019-05-14T06:53:00.526Z,49.40
2019-05-14T06:55:32.408Z,48.70
2019-05-14T06:58:03.841Z,50.00
2019-05-14T07:00:35.481Z,50.70
2019-05-14T07:03:08.939Z,51.00
2019-05-14T07:05:40.101Z,51.60
2019-05-14T07:08:12.224Z,52.30
2019-05-14T07:10:43.819Z,51.60
2019-05-14T07:13:18.742Z,52.30
2019-05-14T07:15:49.703Z,52.00
2019-05-14T07:18:21.445Z,52.40
2019-05-14T07:20:53.269Z,56.10
2019-05-14T07:23:25.657Z,58.50
2019-05-14T07:25:58.885Z,59.20
2019-05-14T07:28:30.809Z,58.60
2019-05-14T07:31:02.605Z,58.30
2019-05-14T07:33:33.867Z,57.50
2019-05-14T07:36:05.317Z,59.10
2019-05-14T07:38:39.258Z,59.70
2019-05-14T07:41:11.109Z,60.30
2019-05-14T07:43:42.729Z,58.40
2019-05-14T07:46:14.059Z,61.00
2019-05-14T07:49:00.619Z,65.60
2019-05-14T07:51:19.937Z,70.00
2019-05-14T07:53:51.277Z,81.60
2019-05-14T07:56:22.724Z,91.90
2019-05-14T07:58:53.825Z,95.30
2019-05-14T08:01:25.461Z,94.00
2019-05-14T08:04:00.125Z,90.90
2019-05-14T08:06:31.795Z,87.00
2019-05-14T08:09:08.481Z,86.30
2019-05-14T08:11:39.959Z,91.70
2019-05-14T08:14:11.501Z,92.90
2019-05-14T08:16:43.549Z,93.50
2019-05-14T08:19:24.436Z,93.50
2019-05-14T08:21:48.839Z,91.80
2019-05-14T08:24:26.688Z,92.30
2019-05-14T08:26:54.318Z,92.50
2019-05-14T08:29:28.541Z,92.30
2019-05-14T08:31:59.465Z,93.30
2019-05-14T08:34:32.389Z,93.50
2019-05-14T08:37:05.500Z,93.30
2019-05-14T08:39:39.225Z,93.30
2019-05-14T08:42:10.772Z,93.20
2019-05-14T08:44:42.064Z,93.20
2019-05-14T08:47:14.119Z,92.90
2019-05-14T08:49:49.525Z,92.40
2019-05-14T08:52:19.779Z,92.30
2019-05-14T08:55:05.557Z,94.80
2019-05-14T08:57:25.059Z,96.00
2019-05-14T08:59:59.293Z,98.30
2019-05-14T09:02:31.180Z,99.90
2019-05-14T09:05:04.718Z,98.10
2019-05-14T09:07:38.354Z,93.70
2019-05-14T09:10:10.746Z,91.30
2019-05-14T09:12:42.576Z,92.20
2019-05-14T09:15:14.561Z,93.00
2019-05-14T09:17:48.397Z,93.40
2019-05-14T09:20:20.602Z,94.50
2019-05-14T09:22:52.362Z,93.60
2019-05-14T09:25:24.516Z,95.20
2019-05-14T09:27:58.620Z,97.50
2019-05-14T09:30:29.826Z,99.00
2019-05-14T09:33:01.449Z,93.80
2019-05-14T09:35:32.914Z,93.20
2019-05-14T09:38:05.194Z,92.20
2019-05-14T09:40:39.467Z,92.00
2019-05-14T09:43:10.368Z,92.10
2019-05-14T09:45:41.659Z,90.50
2019-05-14T09:48:13.341Z,90.80
2019-05-14T09:50:45.219Z,91.40
2019-05-14T09:53:18.127Z,91.50
2019-05-14T09:55:50.371Z,92.90
2019-05-14T09:58:21.684Z,95.00
2019-05-14T10:00:53.036Z,95.30
2019-05-14T10:03:25.113Z,96.90
2019-05-14T10:05:58.992Z,97.40
2019-05-14T10:08:31.192Z,96.60
2019-05-14T10:11:03.119Z,94.70
2019-05-14T10:13:34.494Z,93.70
2019-05-14T10:16:09.239Z,91.20
2019-05-14T10:18:40.088Z,91.30
2019-05-14T10:21:11.735Z,92.20
2019-05-14T10:23:43.056Z,92.00
2019-05-14T10:26:15.084Z,92.50
2019-05-14T10:28:48.464Z,92.60
2019-05-14T10:31:20.284Z,94.30
2019-05-14T10:33:52.260Z,93.90
2019-05-14T10:36:23.901Z,93.00
2019-05-14T10:38:55.522Z,92.90
2019-05-14T10:41:29.016Z,93.60
2019-05-14T10:44:00.162Z,94.20
2019-05-14T10:46:31.971Z,95.30
2019-05-14T10:49:16.338Z,99.90
2019-05-14T10:51:38.922Z,99.90
2019-05-14T10:54:21.025Z,99.90
2019-05-14T10:56:43.894Z,99.90
2019-05-14T10:59:15.524Z,99.90
2019-05-14T11:01:47.160Z,99.90
2019-05-14T11:04:19.063Z,99.90
2019-05-14T11:06:50.782Z,99.90
2019-05-14T11:09:22.879Z,99.90
2019-05-14T11:11:54.506Z,99.90
2019-05-14T11:14:31.329Z,99.90
2019-05-14T11:16:59.671Z,99.90
2019-05-14T11:19:31.429Z,99.90
2019-05-14T11:22:02.695Z,99.90
2019-05-14T11:24:34.830Z,99.90
2019-05-14T11:27:07.071Z,99.90
2019-05-14T11:29:38.994Z,99.90
2019-05-14T11:32:10.763Z,99.90
2019-05-14T11:34:42.943Z,99.90
2019-05-14T11:37:14.534Z,99.90
2019-05-14T11:39:48.741Z,99.90
2019-05-14T11:42:20.530Z,99.80
2019-05-14T11:44:52.558Z,98.60
2019-05-14T11:47:24.482Z,95.20
2019-05-14T11:49:59.145Z,94.70
2019-05-14T11:52:29.824Z,94.40
2019-05-14T11:55:01.475Z,95.10
2019-05-14T11:57:33.225Z,94.60
2019-05-14T12:00:05.318Z,94.90
2019-05-14T12:02:38.639Z,95.70
2019-05-14T12:05:11.221Z,95.40
2019-05-14T12:07:43.019Z,94.90
2019-05-14T12:10:14.551Z,93.70
2019-05-14T12:12:45.658Z,93.00
2019-05-14T12:15:18.846Z,90.90
2019-05-14T12:17:51.415Z,92.90
2019-05-14T12:20:25.000Z,94.40
2019-05-14T12:22:59.135Z,95.60
2019-05-14T12:25:30.342Z,97.00
2019-05-14T12:28:02.612Z,97.50
2019-05-14T12:30:33.619Z,98.80
2019-05-14T12:33:05.880Z,99.90
2019-05-14T12:35:40.340Z,99.90
2019-05-14T12:38:11.227Z,98.90
2019-05-14T12:40:42.937Z,98.80
2019-05-14T12:43:14.305Z,98.40
2019-05-14T12:45:46.223Z,99.00
2019-05-14T12:48:18.854Z,98.90
2019-05-14T12:50:50.584Z,98.80
2019-05-14T12:53:22.221Z,97.10
2019-05-14T12:55:54.163Z,97.20
2019-05-14T12:58:28.379Z,93.90
2019-05-14T13:00:59.834Z,92.90
2019-05-14T13:03:31.263Z,94.20
2019-05-14T13:06:02.971Z,92.50
2019-05-14T13:08:35.092Z,93.70
2019-05-14T13:11:09.363Z,94.10
2019-05-14T13:13:42.789Z,94.00
2019-05-14T13:16:13.755Z,94.40
2019-05-14T13:18:45.044Z,92.60
2019-05-14T13:21:18.943Z,90.40
2019-05-14T13:23:49.849Z,90.20
2019-05-14T13:26:20.974Z,90.80
2019-05-14T13:28:52.533Z,90.70
2019-05-14T13:31:24.192Z,89.00
2019-05-14T13:33:55.465Z,87.80
2019-05-14T13:36:28.767Z,86.10
2019-05-14T13:39:00.169Z,85.00
2019-05-14T13:41:31.461Z,85.60
2019-05-14T13:44:17.262Z,84.90
2019-05-14T13:46:36.401Z,87.80
2019-05-14T13:49:08.573Z,89.60
2019-05-14T13:51:41.257Z,87.70
2019-05-14T13:54:12.821Z,88.20
2019-05-14T13:56:45.070Z,88.40
2019-05-14T13:59:18.797Z,86.60
2019-05-14T14:01:54.683Z,84.30
2019-05-14T14:04:24.435Z,85.10
2019-05-14T14:06:59.044Z,87.20
2019-05-14T14:09:49.974Z,82.70
2019-05-14T14:12:25.043Z,88.70
2019-05-14T14:14:55.453Z,85.30
2019-05-14T14:17:29.232Z,80.80
2019-05-14T14:20:01.231Z,78.10
2019-05-14T14:22:33.120Z,75.60
2019-05-14T14:25:04.985Z,76.80
2019-05-14T14:27:40.785Z,77.70
2019-05-14T14:30:11.911Z,80.30
2019-05-14T14:32:43.597Z,83.00
2019-05-14T14:35:15.642Z,83.60
2019-05-14T14:37:49.330Z,82.40
2019-05-14T14:40:22.487Z,85.10
2019-05-14T14:42:54.481Z,89.20
2019-05-14T14:45:29.192Z,90.00
2019-05-14T14:48:01.277Z,86.00
2019-05-14T14:50:33.060Z,86.00
2019-05-14T14:53:05.121Z,88.40
2019-05-14T14:55:39.980Z,88.10
2019-05-14T14:58:11.663Z,90.30
2019-05-14T15:00:44.148Z,91.30
2019-05-14T15:03:15.249Z,88.90
2019-05-14T15:05:49.887Z,89.60
2019-05-14T15:08:20.408Z,85.70
2019-05-14T15:10:52.043Z,85.40
2019-05-14T15:13:24.065Z,82.70
2019-05-14T15:15:55.642Z,84.50
2019-05-14T15:18:28.826Z,83.30
2019-05-14T15:21:00.185Z,87.00
2019-05-14T15:23:31.777Z,82.20
2019-05-14T15:26:03.693Z,79.50
2019-05-14T15:28:35.325Z,82.20
2019-05-14T15:31:08.832Z,85.20
2019-05-14T15:33:40.579Z,85.30
2019-05-14T15:36:12.253Z,87.30
2019-05-14T15:38:44.134Z,90.00
2019-05-14T15:41:15.741Z,89.00
2019-05-14T15:43:47.578Z,89.60
2019-05-14T15:46:19.193Z,89.90
2019-05-14T15:48:51.040Z,88.20
2019-05-14T15:51:22.824Z,87.90
2019-05-14T15:54:11.067Z,88.70
2019-05-14T15:56:29.805Z,90.00
2019-05-14T15:59:01.596Z,89.00
2019-05-14T16:01:33.473Z,88.60
2019-05-14T16:04:05.819Z,90.50
2019-05-14T16:06:38.614Z,88.20
2019-05-14T16:09:10.129Z,87.60
2019-05-14T16:11:42.292Z,87.80
2019-05-14T16:14:13.717Z,84.90
2019-05-14T16:16:45.271Z,85.00
2019-05-14T16:19:19.050Z,84.20
2019-05-14T16:21:50.540Z,85.60
2019-05-14T16:24:22.804Z,85.10
2019-05-14T16:26:54.562Z,84.20
2019-05-14T16:29:40.343Z,84.50
2019-05-14T16:31:59.245Z,86.50
2019-05-14T16:34:31.176Z,83.00
2019-05-14T16:37:03.257Z,82.10
2019-05-14T16:39:34.861Z,81.60
2019-05-14T16:42:06.604Z,74.00
2019-05-14T16:44:39.103Z,76.30
2019-05-14T16:47:10.315Z,72.40
2019-05-14T16:49:42.216Z,72.80
2019-05-14T16:52:13.795Z,72.90
2019-05-14T16:54:45.488Z,72.80
2019-05-14T16:57:18.566Z,73.10
2019-05-14T16:59:50.496Z,75.20
2019-05-14T17:02:21.802Z,74.50
2019-05-14T17:04:54.293Z,74.10
2019-05-14T17:07:25.842Z,74.30
2019-05-14T17:09:58.169Z,72.90
2019-05-14T17:12:48.389Z,71.30
2019-05-14T17:15:05.434Z,72.20
2019-05-14T17:17:37.238Z,73.60
2019-05-14T17:20:09.548Z,73.00
2019-05-14T17:22:41.095Z,71.60
2019-05-14T17:25:26.244Z,69.40
2019-05-14T17:27:48.585Z,69.30
2019-05-14T17:30:20.499Z,71.50
2019-05-14T17:32:51.877Z,72.60
2019-05-14T17:35:23.184Z,72.90
2019-05-14T17:37:54.520Z,74.40
2019-05-14T17:40:26.170Z,74.20
2019-05-14T17:42:59.243Z,74.80
2019-05-14T17:45:30.999Z,76.50
2019-05-14T17:48:02.362Z,73.50
2019-05-14T17:50:33.741Z,74.80
2019-05-14T17:53:05.497Z,76.70
2019-05-14T17:55:46.553Z,77.80
2019-05-14T17:58:13.232Z,77.40
2019-05-14T18:00:44.332Z,78.90
2019-05-14T18:03:18.268Z,77.70
2019-05-14T18:05:48.316Z,77.30
2019-05-14T18:08:20.157Z,76.90
2019-05-14T18:10:51.772Z,77.60
2019-05-14T18:13:23.626Z,79.00
2019-05-14T18:15:57.947Z,76.10
2019-05-14T18:18:29.253Z,76.10
2019-05-14T18:21:00.958Z,75.00
2019-05-14T18:23:32.526Z,74.30
2019-05-14T18:26:08.896Z,75.60
2019-05-14T18:28:38.584Z,75.10
2019-05-14T18:31:10.256Z,74.30
2019-05-14T18:33:41.849Z,75.40
2019-05-14T18:36:13.543Z,75.90
2019-05-14T18:38:45.742Z,76.50
2019-05-14T18:41:18.837Z,76.20
2019-05-14T18:43:50.098Z,76.70
2019-05-14T18:46:22.278Z,77.70
2019-05-14T18:48:54.636Z,77.40
2019-05-14T18:51:28.756Z,78.10
2019-05-14T18:54:00.348Z,78.50
2019-05-14T18:56:31.899Z,77.70
2019-05-14T18:59:03.598Z,79.60
2019-05-14T19:01:35.047Z,79.50
2019-05-14T19:04:08.231Z,79.50
2019-05-14T19:06:39.785Z,79.90
2019-05-14T19:09:11.711Z,80.30
2019-05-14T19:11:43.350Z,80.80
2019-05-14T19:14:15.555Z,81.20
2019-05-14T19:16:48.925Z,81.10
2019-05-14T19:19:20.970Z,81.40
2019-05-14T19:21:53.339Z,82.80
2019-05-14T19:24:25.381Z,83.00
2019-05-14T19:26:59.353Z,82.40
2019-05-14T19:29:30.323Z,83.10
2019-05-14T19:32:02.201Z,82.70
2019-05-14T19:34:33.780Z,83.10
2019-05-14T19:37:05.133Z,83.90
2019-05-14T19:39:38.542Z,83.20
2019-05-14T19:42:10.476Z,84.00
2019-05-14T19:44:42.102Z,84.70
2019-05-14T19:47:13.929Z,85.40
2019-05-14T19:49:45.895Z,85.40
2019-05-14T19:52:17.597Z,86.00
2019-05-14T19:54:49.541Z,86.30
2019-05-14T19:57:20.838Z,86.60
2019-05-14T19:59:53.051Z,87.30
2019-05-14T20:02:24.631Z,88.20
2019-05-14T20:04:55.888Z,87.70
2019-05-14T20:07:28.023Z,87.20
2019-05-14T20:10:00.167Z,87.10
2019-05-14T20:12:31.888Z,86.90
2019-05-14T20:15:03.424Z,87.60
2019-05-14T20:17:38.133Z,88.30
2019-05-14T20:20:10.377Z,88.40
2019-05-14T20:22:41.991Z,88.90
2019-05-14T20:25:13.648Z,89.30
2019-05-14T20:27:47.634Z,89.30
2019-05-14T20:30:19.880Z,89.70
2019-05-14T20:32:51.690Z,90.00
2019-05-14T20:35:33.642Z,90.20
2019-05-14T20:37:58.453Z,90.20
2019-05-14T20:40:29.915Z,90.90
2019-05-14T20:43:01.644Z,91.20
2019-05-14T20:45:33.337Z,91.40
2019-05-14T20:48:05.194Z,91.60
2019-05-14T20:50:38.382Z,92.10
2019-05-14T20:53:10.426Z,93.00
2019-05-14T20:55:41.820Z,93.90
2019-05-14T20:58:13.634Z,94.40
2019-05-14T21:00:45.030Z,96.10
2019-05-14T21:03:18.527Z,96.90
2019-05-14T21:05:50.200Z,98.10
2019-05-14T21:08:21.528Z,99.10
2019-05-14T21:10:52.628Z,99.90
2019-05-14T21:13:24.201Z,99.90
2019-05-14T21:15:56.300Z,99.90
2019-05-14T21:18:35.133Z,99.90
2019-05-14T21:21:01.515Z,99.90
2019-05-14T21:23:33.396Z,99.90
2019-05-14T21:26:05.028Z,99.90
2019-05-14T21:28:39.317Z,99.90
2019-05-14T21:31:10.775Z,99.90
2019-05-14T21:33:42.353Z,99.90
2019-05-14T21:36:14.365Z,99.90
2019-05-14T21:38:45.402Z,99.90
2019-05-14T21:41:20.181Z,99.90
2019-05-14T21:43:50.000Z,99.90
2019-05-14T21:46:21.344Z,99.90
2019-05-14T21:48:53.919Z,99.90
2019-05-14T21:51:25.221Z,99.90
2019-05-14T21:53:58.818Z,99.90
2019-05-14T21:56:30.479Z,99.90
2019-05-14T21:59:02.603Z,99.90
2019-05-14T22:01:34.627Z,99.90
2019-05-14T22:04:08.746Z,99.90
2019-05-14T22:06:41.194Z,99.90
2019-05-14T22:09:14.557Z,99.90
2019-05-14T22:11:48.459Z,99.90
2019-05-14T22:14:19.783Z,99.90
2019-05-14T22:16:51.145Z,99.90
2019-05-14T22:19:22.490Z,99.90
2019-05-14T22:21:54.261Z,99.90
2019-05-14T22:24:28.527Z,99.90
2019-05-14T22:26:59.492Z,99.90
2019-05-14T22:29:31.377Z,99.90
2019-05-14T22:32:03.311Z,99.90
2019-05-14T22:34:34.348Z,99.90
2019-05-14T22:37:05.887Z,99.90
2019-05-14T22:39:39.063Z,99.90
2019-05-14T22:42:11.448Z,99.90
2019-05-14T22:44:43.325Z,99.90
2019-05-14T22:47:14.478Z,99.90
2019-05-14T22:49:48.490Z,99.90
2019-05-14T22:52:20.095Z,99.90
2019-05-14T22:54:51.181Z,99.90
2019-05-14T22:57:22.792Z,99.90
2019-05-14T22:59:54.995Z,99.90
2019-05-14T23:02:28.460Z,99.90
2019-05-14T23:05:00.109Z,99.90
2019-05-14T23:07:32.316Z,99.90
2019-05-14T23:10:03.659Z,99.90
2019-05-14T23:12:35.044Z,99.90
2019-05-14T23:15:07.131Z,99.90
2019-05-14T23:17:39.131Z,99.90
2019-05-14T23:20:10.894Z,99.90
2019-05-14T23:22:43.131Z,99.90
2019-05-14T23:25:15.093Z,99.90
2019-05-14T23:27:48.124Z,99.90
2019-05-14T23:30:42.281Z,99.90
2019-05-14T23:33:13.706Z,99.90
2019-05-14T23:35:48.187Z,99.90
2019-05-14T23:38:19.627Z,99.90
2019-05-14T23:40:50.946Z,99.90
2019-05-14T23:43:22.806Z,99.90
2019-05-14T23:45:54.382Z,99.90
2019-05-14T23:48:25.886Z,99.90
2019-05-14T23:50:58.482Z,99.90
2019-05-14T23:53:29.809Z,99.90
2019-05-14T23:56:01.388Z,99.90
2019-05-14T23:58:33.534Z,99.90
